Time;durP1;ratioP1;P1;durP2;ratioP2;P2;SDS_P1;SDS_P2;PMS_P1;PMS_P2;Temp;Humidity;BMP_temperature;BMP_pressure;BME280_temperature;BME280_humidity;BME280_pressure;Samples;Min_cycle;Max_cycle;Signal;HPM_P1;HPM_P2
2022/02/26 00:00:33;;;;;;;;;;;16.60;35.30;;;;;;8331608;28;19917;-51
2022/02/26 00:04:34;;;;;;;;;;;16.60;35.20;;;;;;8331013;28;19917;-50
2022/02/26 00:08:34;;;;;;;;;;;16.50;35.20;;;;;;8331270;28;19932;-48
2022/02/26 00:12:35;;;;;;;;;;;16.50;35.20;;;;;;8331142;28;20045;-52
2022/02/26 00:16:35;;;;;;;;;;;16.50;35.20;;;;;;8330822;28;19955;-53
2022/02/26 00:20:36;;;;;;;;;;;16.50;35.20;;;;;;8330851;28;19917;-52
2022/02/26 00:24:36;;;;;;;;;;;16.50;35.20;;;;;;8331041;28;20267;-48
2022/02/26 00:28:37;;;;;;;;;;;16.50;35.20;;;;;;8330241;28;19990;-51
2022/02/26 00:32:38;;;;;;;;;;;16.50;35.30;;;;;;8330622;28;19998;-48
2022/02/26 00:36:38;;;;;;;;;;;16.50;35.30;;;;;;8330702;28;19996;-52
2022/02/26 00:40:39;;;;;;;;;;;16.50;35.80;;;;;;8329610;28;19918;-54
2022/02/26 00:44:39;;;;;;;;;;;16.50;35.30;;;;;;8330315;28;19917;-49
2022/02/26 00:52:59;;;;;;;;;;;16.50;35.30;;;;;;8330883;28;20353;-52
2022/02/26 00:56:59;;;;;;;;;;;16.40;35.30;;;;;;8330231;28;19914;-48
2022/02/26 01:01:00;;;;;;;;;;;16.40;35.20;;;;;;8330590;28;20018;-48
2022/02/26 01:05:01;;;;;;;;;;;16.40;35.30;;;;;;8329602;28;20448;-48
2022/02/26 01:09:04;;;;;;;;;;;16.40;35.30;;;;;;8330555;28;19929;-50
2022/02/26 01:13:04;;;;;;;;;;;16.40;35.30;;;;;;8343035;28;19956;-49
2022/02/26 01:17:06;;;;;;;;;;;16.40;35.30;;;;;;8329682;28;19913;-48
2022/02/26 01:21:07;;;;;;;;;;;16.40;35.30;;;;;;8330146;28;20290;-50
2022/02/26 01:25:07;;;;;;;;;;;16.40;35.30;;;;;;8330129;28;19925;-50
2022/02/26 01:29:08;;;;;;;;;;;16.40;35.30;;;;;;8329215;28;19937;-51
2022/02/26 01:33:08;;;;;;;;;;;16.30;35.30;;;;;;8328377;28;19982;-48
2022/02/26 01:37:09;;;;;;;;;;;16.30;35.30;;;;;;8329952;28;20028;-48
2022/02/26 01:41:09;;;;;;;;;;;16.30;35.30;;;;;;8328853;28;19921;-50
2022/02/26 01:45:11;;;;;;;;;;;16.30;35.30;;;;;;8329660;28;20011;-53
2022/02/26 01:49:11;;;;;;;;;;;16.30;35.30;;;;;;8329501;28;19928;-51
2022/02/26 01:53:13;;;;;;;;;;;16.30;35.30;;;;;;8334173;28;20396;-52
2022/02/26 01:57:13;;;;;;;;;;;16.30;35.30;;;;;;8335688;28;19917;-48
2022/02/26 02:01:13;;;;;;;;;;;16.30;35.30;;;;;;8334874;28;19924;-50
2022/02/26 02:05:14;;;;;;;;;;;16.30;35.30;;;;;;8334486;28;19921;-50
2022/02/26 02:09:15;;;;;;;;;;;16.30;35.30;;;;;;8333817;28;19921;-49
2022/02/26 02:13:15;;;;;;;;;;;16.30;35.30;;;;;;8334680;28;20004;-52
2022/02/26 02:17:16;;;;;;;;;;;16.30;35.30;;;;;;8334030;28;19917;-48
2022/02/26 02:21:16;;;;;;;;;;;16.30;35.30;;;;;;8334223;28;19971;-50
2022/02/26 02:25:17;;;;;;;;;;;16.30;35.30;;;;;;8334491;28;19920;-50
2022/02/26 02:29:17;;;;;;;;;;;16.30;35.80;;;;;;8333441;28;20012;-53
2022/02/26 02:33:19;;;;;;;;;;;16.30;35.30;;;;;;8333963;28;19913;-54
2022/02/26 02:37:19;;;;;;;;;;;16.30;35.30;;;;;;8334181;28;20285;-50
2022/02/26 02:41:20;;;;;;;;;;;16.30;35.30;;;;;;8333213;28;19962;-49
2022/02/26 02:45:21;;;;;;;;;;;16.30;35.20;;;;;;8333428;28;19917;-48
2022/02/26 02:49:22;;;;;;;;;;;16.30;35.20;;;;;;8332989;28;20193;-50
2022/02/26 02:53:22;;;;;;;;;;;16.30;35.30;;;;;;8333939;28;19921;-48
2022/02/26 02:57:23;;;;;;;;;;;16.30;35.30;;;;;;8333782;28;19917;-47
2022/02/26 03:01:23;;;;;;;;;;;16.30;35.30;;;;;;8333022;28;19924;-48
2022/02/26 03:05:24;;;;;;;;;;;16.20;35.20;;;;;;8333414;28;20027;-49
2022/02/26 03:09:24;;;;;;;;;;;16.30;35.30;;;;;;8333010;28;19932;-48
2022/02/26 03:13:26;;;;;;;;;;;16.20;35.20;;;;;;8332858;28;20345;-48
2022/02/26 03:17:27;;;;;;;;;;;16.30;35.30;;;;;;8333484;28;19913;-49
2022/02/26 03:21:28;;;;;;;;;;;16.20;35.20;;;;;;8329813;28;19921;-47
2022/02/26 03:25:28;;;;;;;;;;;16.20;35.20;;;;;;8332122;28;19918;-49
2022/02/26 03:29:28;;;;;;;;;;;16.20;35.20;;;;;;8332746;28;19986;-49
2022/02/26 03:33:30;;;;;;;;;;;16.10;35.20;;;;;;8332421;28;19951;-50
2022/02/26 03:37:31;;;;;;;;;;;16.10;35.20;;;;;;8331788;28;20011;-48
2022/02/26 03:41:31;;;;;;;;;;;16.10;35.20;;;;;;8332465;28;19975;-50
2022/02/26 03:45:32;;;;;;;;;;;16.10;35.30;;;;;;8332075;28;19917;-48
2022/02/26 03:49:32;;;;;;;;;;;16.10;35.30;;;;;;8331383;28;19925;-49
2022/02/26 03:53:33;;;;;;;;;;;16.10;35.30;;;;;;8332042;28;20079;-48
2022/02/26 03:57:33;;;;;;;;;;;16.10;35.30;;;;;;8331956;28;19913;-49
2022/02/26 04:01:34;;;;;;;;;;;16.20;35.30;;;;;;8330941;28;20282;-49
2022/02/26 04:05:35;;;;;;;;;;;16.10;35.30;;;;;;8330085;28;19917;-50
2022/02/26 04:09:35;;;;;;;;;;;16.10;35.30;;;;;;8331233;28;19925;-48
2022/02/26 04:13:36;;;;;;;;;;;16.20;35.30;;;;;;8330175;28;19918;-52
2022/02/26 04:17:36;;;;;;;;;;;16.20;35.30;;;;;;8331667;28;19921;-48
2022/02/26 04:21:37;;;;;;;;;;;16.10;35.30;;;;;;8331279;28;19971;-50
2022/02/26 04:25:37;;;;;;;;;;;16.10;35.30;;;;;;8330602;28;20161;-48
2022/02/26 04:29:38;;;;;;;;;;;16.10;35.30;;;;;;8330049;28;20016;-48
2022/02/26 04:33:38;;;;;;;;;;;16.20;35.30;;;;;;8330154;28;19980;-51
2022/02/26 04:37:39;;;;;;;;;;;16.10;35.30;;;;;;8329949;28;19913;-48
2022/02/26 04:41:39;;;;;;;;;;;16.20;35.30;;;;;;8329882;28;19917;-49
2022/02/26 04:45:40;;;;;;;;;;;16.10;35.80;;;;;;8328416;28;19916;-48
2022/02/26 04:49:40;;;;;;;;;;;16.10;35.20;;;;;;8326043;28;19931;-51
2022/02/26 04:53:41;;;;;;;;;;;16.10;35.30;;;;;;8329726;28;19929;-49
2022/02/26 04:57:41;;;;;;;;;;;16.10;35.20;;;;;;8329772;28;19917;-49
2022/02/26 05:01:42;;;;;;;;;;;16.10;35.20;;;;;;8327956;28;19955;-53
2022/02/26 05:05:42;;;;;;;;;;;16.10;35.30;;;;;;8329780;28;20339;-49
2022/02/26 05:09:43;;;;;;;;;;;16.10;35.20;;;;;;8329611;28;20397;-49
2022/02/26 05:13:43;;;;;;;;;;;16.10;35.20;;;;;;8329270;28;19924;-49
2022/02/26 05:17:44;;;;;;;;;;;16.10;35.20;;;;;;8329911;28;19917;-48
2022/02/26 05:21:44;;;;;;;;;;;16.10;35.20;;;;;;8329795;28;19917;-48
2022/02/26 05:25:44;;;;;;;;;;;16.10;35.20;;;;;;8332137;28;19917;-53
2022/02/26 05:29:45;;;;;;;;;;;16.10;35.20;;;;;;8335468;28;20275;-50
2022/02/26 05:33:46;;;;;;;;;;;16.10;35.20;;;;;;8335972;28;19917;-50
2022/02/26 05:37:47;;;;;;;;;;;16.10;35.20;;;;;;8335536;28;19924;-50
2022/02/26 05:41:47;;;;;;;;;;;16.10;35.20;;;;;;8336142;28;20148;-48
2022/02/26 05:45:48;;;;;;;;;;;16.10;35.20;;;;;;8335691;28;19917;-50
2022/02/26 05:49:48;;;;;;;;;;;16.00;35.20;;;;;;8335123;28;19925;-48
2022/02/26 05:53:49;;;;;;;;;;;16.10;35.20;;;;;;8335754;28;19948;-49
2022/02/26 05:57:49;;;;;;;;;;;16.00;35.20;;;;;;8334913;28;20008;-48
2022/02/26 06:01:50;;;;;;;;;;;16.00;35.20;;;;;;8334584;28;19940;-49
2022/02/26 06:05:50;;;;;;;;;;;16.00;35.20;;;;;;8335344;28;19917;-50
2022/02/26 06:09:50;;;;;;;;;;;16.00;35.20;;;;;;8335057;28;19932;-52
2022/02/26 06:13:53;;;;;;;;;;;16.00;35.20;;;;;;8334080;28;20141;-53
2022/02/26 06:17:53;;;;;;;;;;;16.00;35.20;;;;;;8334914;28;20403;-48
2022/02/26 06:21:54;;;;;;;;;;;16.00;35.30;;;;;;8334246;28;19924;-48
2022/02/26 06:25:54;;;;;;;;;;;16.00;35.20;;;;;;8333654;28;20012;-52
2022/02/26 06:29:55;;;;;;;;;;;16.00;35.20;;;;;;8333830;28;19929;-52
2022/02/26 06:33:55;;;;;;;;;;;16.00;35.20;;;;;;8334039;28;19917;-51
2022/02/26 06:37:55;;;;;;;;;;;16.00;35.20;;;;;;8332610;28;19971;-48
2022/02/26 06:41:56;;;;;;;;;;;16.00;35.20;;;;;;8333630;28;20389;-48
2022/02/26 06:45:57;;;;;;;;;;;16.00;35.20;;;;;;8333728;28;19913;-47
2022/02/26 06:49:57;;;;;;;;;;;16.00;35.30;;;;;;8333402;28;19952;-51
2022/02/26 06:53:58;;;;;;;;;;;16.00;35.20;;;;;;8333718;28;19922;-51
2022/02/26 06:57:58;;;;;;;;;;;16.00;35.30;;;;;;8332823;28;19921;-47
2022/02/26 07:01:59;;;;;;;;;;;16.00;35.30;;;;;;8332507;28;19917;-51
2022/02/26 07:05:59;;;;;;;;;;;15.90;35.20;;;;;;8332628;28;19913;-49
2022/02/26 07:09:59;;;;;;;;;;;16.00;35.30;;;;;;8332619;28;19948;-49
2022/02/26 07:14:00;;;;;;;;;;;15.90;35.20;;;;;;8332221;28;19913;-50
2022/02/26 07:18:01;;;;;;;;;;;15.90;35.20;;;;;;8332422;28;19917;-49
2022/02/26 07:22:02;;;;;;;;;;;16.00;35.20;;;;;;8332192;28;20378;-48
2022/02/26 07:26:03;;;;;;;;;;;16.00;35.20;;;;;;8331624;28;19924;-49
2022/02/26 07:30:05;;;;;;;;;;;15.90;35.20;;;;;;8332211;28;19956;-52
2022/02/26 07:34:06;;;;;;;;;;;15.90;35.20;;;;;;8332677;28;20263;-52
2022/02/26 07:38:06;;;;;;;;;;;15.90;35.20;;;;;;8332130;28;19917;-48
2022/02/26 07:42:07;;;;;;;;;;;16.00;35.20;;;;;;8332357;28;19918;-51
2022/02/26 07:46:08;;;;;;;;;;;15.90;35.20;;;;;;8332190;28;19921;-52
2022/02/26 07:50:08;;;;;;;;;;;15.90;35.20;;;;;;8330091;28;20062;-49
2022/02/26 07:54:09;;;;;;;;;;;15.90;35.20;;;;;;8331980;28;19983;-48
2022/02/26 07:58:10;;;;;;;;;;;15.90;35.20;;;;;;8331801;28;19924;-51
2022/02/26 08:02:10;;;;;;;;;;;15.90;35.20;;;;;;8330809;28;20358;-48
2022/02/26 08:06:11;;;;;;;;;;;15.90;35.20;;;;;;8320576;28;20004;-50
2022/02/26 08:10:11;;;;;;;;;;;15.90;35.10;;;;;;8301243;28;19932;-53
2022/02/26 08:14:12;;;;;;;;;;;15.90;35.10;;;;;;8330965;28;19960;-49
2022/02/26 08:18:13;;;;;;;;;;;15.90;35.10;;;;;;8331105;28;19971;-51
2022/02/26 08:22:13;;;;;;;;;;;15.90;35.20;;;;;;8331266;28;19967;-50
2022/02/26 08:26:17;;;;;;;;;;;15.90;35.10;;;;;;8330273;28;19917;-48
2022/02/26 08:30:18;;;;;;;;;;;15.90;35.20;;;;;;8330540;28;20385;-49
2022/02/26 08:34:18;;;;;;;;;;;15.90;35.10;;;;;;8330782;28;19921;-48
2022/02/26 08:38:19;;;;;;;;;;;16.00;35.20;;;;;;8329985;28;20278;-50
2022/02/26 08:42:21;;;;;;;;;;;16.00;35.10;;;;;;8330462;28;19921;-48
2022/02/26 08:46:21;;;;;;;;;;;16.00;35.10;;;;;;8330447;28;19913;-49
2022/02/26 08:50:23;;;;;;;;;;;16.00;35.10;;;;;;8305862;28;19926;-51
2022/02/26 08:54:23;;;;;;;;;;;15.90;35.10;;;;;;8330553;28;20220;-50
2022/02/26 08:58:24;;;;;;;;;;;16.00;35.10;;;;;;8329827;28;19921;-48
2022/02/26 09:02:25;;;;;;;;;;;16.00;35.10;;;;;;8329612;28;19924;-50
2022/02/26 09:06:26;;;;;;;;;;;16.00;35.10;;;;;;8329959;28;20383;-48
2022/02/26 09:10:26;;;;;;;;;;;16.00;35.00;;;;;;8329436;28;19928;-49
2022/02/26 09:14:27;;;;;;;;;;;16.00;35.10;;;;;;8330023;28;19913;-52
2022/02/26 09:18:28;;;;;;;;;;;16.00;35.20;;;;;;8329989;28;19921;-51
2022/02/26 09:22:28;;;;;;;;;;;16.00;35.10;;;;;;8329284;28;20416;-52
2022/02/26 09:26:28;;;;;;;;;;;16.00;35.00;;;;;;8329633;28;19964;-48
2022/02/26 09:30:29;;;;;;;;;;;16.00;35.00;;;;;;8329734;28;19972;-49
2022/02/26 09:34:29;;;;;;;;;;;16.10;35.10;;;;;;8329373;28;19924;-49
2022/02/26 09:38:30;;;;;;;;;;;16.00;35.00;;;;;;8329706;28;19996;-49
2022/02/26 09:42:31;;;;;;;;;;;16.00;35.10;;;;;;8329630;28;19948;-48
2022/02/26 09:46:31;;;;;;;;;;;16.10;35.10;;;;;;8329065;28;19923;-49
2022/02/26 09:50:32;;;;;;;;;;;16.10;35.20;;;;;;8329778;28;20000;-51
2022/02/26 09:54:32;;;;;;;;;;;16.10;35.20;;;;;;8329701;28;19928;-49
2022/02/26 09:58:33;;;;;;;;;;;16.10;35.20;;;;;;8328820;28;20419;-51
2022/02/26 10:02:35;;;;;;;;;;;16.10;35.20;;;;;;8329218;28;19917;-50
2022/02/26 10:06:36;;;;;;;;;;;16.10;35.10;;;;;;8329338;28;20328;-51
2022/02/26 10:10:42;;;;;;;;;;;16.10;35.20;;;;;;8328673;28;19925;-52
2022/02/26 10:14:42;;;;;;;;;;;16.10;35.20;;;;;;8335496;28;19949;-48
2022/02/26 10:18:53;;;;;;;;;;;16.10;35.20;;;;;;8334983;28;20389;-49
2022/02/26 10:22:54;;;;;;;;;;;16.10;35.20;;;;;;8334356;28;20392;-55
2022/02/26 10:26:56;;;;;;;;;;;16.20;35.20;;;;;;8334530;28;19924;-50
2022/02/26 10:31:01;;;;;;;;;;;16.20;35.20;;;;;;8334513;28;19979;-51
2022/02/26 10:35:03;;;;;;;;;;;16.20;35.20;;;;;;8334153;28;19952;-49
2022/02/26 10:39:04;;;;;;;;;;;16.20;35.10;;;;;;8334265;28;20008;-50
2022/02/26 10:43:04;;;;;;;;;;;16.20;35.10;;;;;;8334054;28;19938;-48
2022/02/26 10:47:04;;;;;;;;;;;16.20;35.10;;;;;;8333510;28;19957;-50
2022/02/26 10:51:05;;;;;;;;;;;16.20;35.10;;;;;;8333842;28;19925;-49
2022/02/26 10:55:07;;;;;;;;;;;16.30;35.00;;;;;;8334302;28;19929;-50
2022/02/26 10:59:08;;;;;;;;;;;16.30;35.00;;;;;;8333160;28;19964;-52
2022/02/26 11:03:10;;;;;;;;;;;16.30;35.00;;;;;;8323044;28;19964;-50
2022/02/26 11:07:11;;;;;;;;;;;16.30;35.00;;;;;;8309787;28;19920;-51
2022/02/26 11:11:11;;;;;;;;;;;16.30;35.00;;;;;;8332578;28;19929;-50
2022/02/26 11:15:12;;;;;;;;;;;16.40;34.90;;;;;;8333457;28;20406;-49
2022/02/26 11:19:13;;;;;;;;;;;16.40;34.80;;;;;;8332811;28;19948;-48
2022/02/26 11:23:14;;;;;;;;;;;16.50;34.90;;;;;;8332092;28;20420;-49
2022/02/26 11:27:14;;;;;;;;;;;16.60;34.80;;;;;;8332891;28;20004;-50
2022/02/26 11:31:16;;;;;;;;;;;16.60;34.60;;;;;;8332344;28;19978;-50
2022/02/26 11:35:21;;;;;;;;;;;16.60;34.60;;;;;;8332352;28;19921;-48
2022/02/26 11:39:26;;;;;;;;;;;16.50;34.40;;;;;;8332364;28;20281;-48
2022/02/26 11:43:33;;;;;;;;;;;16.60;34.50;;;;;;8331792;28;20006;-49
2022/02/26 11:47:49;;;;;;;;;;;16.60;34.50;;;;;;8332505;28;19952;-54
2022/02/26 11:51:50;;;;;;;;;;;16.60;34.40;;;;;;8331911;28;20373;-50
2022/02/26 11:55:54;;;;;;;;;;;16.60;34.40;;;;;;8331399;28;19960;-48
2022/02/26 12:00:07;;;;;;;;;;;16.70;34.40;;;;;;8331538;28;20275;-54
2022/02/26 12:04:09;;;;;;;;;;;16.70;34.30;;;;;;8331430;28;20522;-53
2022/02/26 12:08:10;;;;;;;;;;;16.70;34.40;;;;;;8330815;28;19963;-53
2022/02/26 12:12:30;;;;;;;;;;;16.70;34.40;;;;;;8331047;28;19928;-49
2022/02/26 12:16:35;;;;;;;;;;;16.70;34.40;;;;;;8330791;28;20020;-50
2022/02/26 12:20:35;;;;;;;;;;;16.70;34.40;;;;;;8331639;28;19971;-54
2022/02/26 12:24:46;;;;;;;;;;;16.70;34.40;;;;;;8330702;28;19917;-52
2022/02/26 12:28:47;;;;;;;;;;;16.70;34.40;;;;;;8330343;28;19917;-52
2022/02/26 12:33:03;;;;;;;;;;;16.70;34.40;;;;;;8330744;28;20386;-52
2022/02/26 12:37:10;;;;;;;;;;;16.70;35.00;;;;;;8329997;28;19924;-49
2022/02/26 12:41:25;;;;;;;;;;;16.70;34.40;;;;;;8330170;28;20362;-49
2022/02/26 12:45:26;;;;;;;;;;;16.70;35.00;;;;;;8330647;28;20004;-48
2022/02/26 12:49:27;;;;;;;;;;;16.80;34.60;;;;;;8329643;28;19921;-53
2022/02/26 12:53:27;;;;;;;;;;;16.70;34.40;;;;;;8330108;28;19953;-50
2022/02/26 12:57:35;;;;;;;;;;;16.70;34.40;;;;;;8330196;28;19913;-48
2022/02/26 13:01:36;;;;;;;;;;;16.70;34.40;;;;;;8329597;28;19924;-51
2022/02/26 13:05:41;;;;;;;;;;;16.70;34.40;;;;;;8329812;28;19987;-49
2022/02/26 13:09:53;;;;;;;;;;;16.70;34.40;;;;;;8329796;28;19925;-50
2022/02/26 13:14:03;;;;;;;;;;;16.70;34.40;;;;;;8329439;28;19921;-49
2022/02/26 13:18:04;;;;;;;;;;;16.70;34.40;;;;;;8329805;28;20013;-48
2022/02/26 13:22:04;;;;;;;;;;;16.70;34.40;;;;;;8329305;28;19917;-52
2022/02/26 13:26:05;;;;;;;;;;;16.70;34.50;;;;;;8329699;28;19953;-48
2022/02/26 13:30:06;;;;;;;;;;;16.70;34.40;;;;;;8329646;28;19933;-49
2022/02/26 13:34:13;;;;;;;;;;;16.70;34.40;;;;;;8329516;28;20589;-50
2022/02/26 13:38:15;;;;;;;;;;;16.70;34.30;;;;;;8329187;28;19917;-50
2022/02/26 13:42:25;;;;;;;;;;;16.70;34.30;;;;;;8329411;28;19935;-49
2022/02/26 13:46:27;;;;;;;;;;;16.70;34.30;;;;;;8331997;28;19918;-52
2022/02/26 13:50:28;;;;;;;;;;;16.70;34.30;;;;;;8335590;28;19932;-51
2022/02/26 13:54:28;;;;;;;;;;;16.70;34.30;;;;;;8335791;28;20332;-51
2022/02/26 13:58:30;;;;;;;;;;;16.70;34.30;;;;;;8334938;28;19924;-50
2022/02/26 14:02:31;;;;;;;;;;;16.70;34.30;;;;;;8335747;28;19917;-49
2022/02/26 14:06:32;;;;;;;;;;;16.70;34.30;;;;;;8335418;28;19917;-49
2022/02/26 14:10:36;;;;;;;;;;;16.70;34.30;;;;;;8333906;28;20023;-53
2022/02/26 14:14:38;;;;;;;;;;;16.70;34.30;;;;;;8335197;28;19924;-53
2022/02/26 14:18:38;;;;;;;;;;;16.70;34.20;;;;;;8334928;28;20269;-50
2022/02/26 14:22:40;;;;;;;;;;;16.70;34.20;;;;;;8334258;28;19967;-50
2022/02/26 14:26:49;;;;;;;;;;;16.70;34.10;;;;;;8334747;28;19919;-49
2022/02/26 14:30:53;;;;;;;;;;;16.70;34.10;;;;;;8334360;28;19975;-50
2022/02/26 14:34:54;;;;;;;;;;;16.70;34.10;;;;;;8333669;28;19917;-51
2022/02/26 14:38:54;;;;;;;;;;;16.70;34.10;;;;;;8334419;28;20315;-50
2022/02/26 14:42:55;;;;;;;;;;;16.70;34.00;;;;;;8334226;28;19921;-49
2022/02/26 14:46:56;;;;;;;;;;;16.80;34.10;;;;;;8333787;28;19917;-49
2022/02/26 14:50:56;;;;;;;;;;;16.70;34.00;;;;;;8333933;28;19947;-51
2022/02/26 14:54:57;;;;;;;;;;;16.70;34.10;;;;;;8333784;28;19928;-49
2022/02/26 14:58:57;;;;;;;;;;;16.70;34.10;;;;;;8332472;28;19917;-49
2022/02/26 15:02:58;;;;;;;;;;;16.80;34.10;;;;;;8333725;28;20286;-51
2022/02/26 15:06:58;;;;;;;;;;;16.70;34.10;;;;;;8333572;28;20386;-48
2022/02/26 15:10:59;;;;;;;;;;;16.80;34.10;;;;;;8332779;28;19971;-50
2022/02/26 15:14:59;;;;;;;;;;;16.70;34.10;;;;;;8333222;28;19925;-49
2022/02/26 15:19:01;;;;;;;;;;;16.80;34.00;;;;;;8333129;28;19921;-51
2022/02/26 15:23:01;;;;;;;;;;;16.80;34.00;;;;;;8324019;28;19914;-49
2022/02/26 15:27:03;;;;;;;;;;;16.80;34.10;;;;;;8314001;28;20281;-49
2022/02/26 15:31:04;;;;;;;;;;;16.70;34.00;;;;;;8331246;28;19931;-49
2022/02/26 15:35:04;;;;;;;;;;;16.80;34.00;;;;;;8331904;28;19917;-49
2022/02/26 15:39:06;;;;;;;;;;;16.70;34.00;;;;;;8332632;28;20371;-50
2022/02/26 15:43:06;;;;;;;;;;;16.70;34.00;;;;;;8332438;28;20000;-50
2022/02/26 15:47:07;;;;;;;;;;;16.70;34.00;;;;;;8331903;28;20366;-48
2022/02/26 15:51:07;;;;;;;;;;;16.70;33.90;;;;;;8331923;28;20016;-52
2022/02/26 15:55:08;;;;;;;;;;;16.70;33.90;;;;;;8331863;28;19995;-52
2022/02/26 15:59:09;;;;;;;;;;;16.70;33.80;;;;;;8331296;28;19925;-53
2022/02/26 16:03:09;;;;;;;;;;;16.80;33.90;;;;;;8331577;28;20285;-53
2022/02/26 16:07:10;;;;;;;;;;;16.70;33.90;;;;;;8331852;28;20317;-49
2022/02/26 16:11:10;;;;;;;;;;;16.80;33.90;;;;;;8329914;28;19925;-50
2022/02/26 16:15:11;;;;;;;;;;;16.70;34.00;;;;;;8331267;28;19963;-49
2022/02/26 16:19:11;;;;;;;;;;;16.70;33.90;;;;;;8331184;28;20386;-50
2022/02/26 16:23:12;;;;;;;;;;;16.70;33.90;;;;;;8330539;28;19917;-49
2022/02/26 16:27:13;;;;;;;;;;;16.70;33.80;;;;;;8330964;28;19920;-49
2022/02/26 16:31:13;;;;;;;;;;;16.70;33.80;;;;;;8330635;28;20272;-48
2022/02/26 16:35:14;;;;;;;;;;;16.70;33.80;;;;;;8329791;28;19939;-49
2022/02/26 16:39:14;;;;;;;;;;;16.70;34.40;;;;;;8330772;28;20362;-47
2022/02/26 16:43:14;;;;;;;;;;;16.70;33.90;;;;;;8330774;28;19921;-47
2022/02/26 16:47:15;;;;;;;;;;;16.70;33.90;;;;;;8329898;28;19948;-50
2022/02/26 16:51:16;;;;;;;;;;;16.70;33.90;;;;;;8330519;28;19925;-50
2022/02/26 16:55:17;;;;;;;;;;;16.70;33.90;;;;;;8328377;28;19964;-52
2022/02/26 16:59:17;;;;;;;;;;;16.60;33.80;;;;;;8297704;28;20367;-53
2022/02/26 17:03:17;;;;;;;;;;;16.70;33.80;;;;;;8313437;28;19913;-50
2022/02/26 17:07:18;;;;;;;;;;;16.60;33.70;;;;;;8329974;28;20289;-50
2022/02/26 17:11:18;;;;;;;;;;;16.60;33.80;;;;;;8328417;28;20068;-48
2022/02/26 17:15:19;;;;;;;;;;;16.60;33.80;;;;;;8329625;28;20333;-49
2022/02/26 17:19:19;;;;;;;;;;;16.60;33.90;;;;;;8329913;28;19921;-49
2022/02/26 17:23:20;;;;;;;;;;;16.60;33.90;;;;;;8335629;28;19913;-49
2022/02/26 17:27:21;;;;;;;;;;;16.60;33.90;;;;;;8336529;28;19917;-49
2022/02/26 17:31:21;;;;;;;;;;;16.60;33.90;;;;;;8336264;28;19925;-48
2022/02/26 17:35:22;;;;;;;;;;;16.60;33.90;;;;;;8335713;28;19924;-47
2022/02/26 17:39:22;;;;;;;;;;;16.60;33.80;;;;;;8336232;28;19917;-48
2022/02/26 17:43:23;;;;;;;;;;;16.60;33.80;;;;;;8335857;28;20004;-49
2022/02/26 17:47:23;;;;;;;;;;;16.60;33.80;;;;;;8334614;28;20337;-51
2022/02/26 17:51:24;;;;;;;;;;;16.60;33.80;;;;;;8335485;28;20412;-49
2022/02/26 17:55:24;;;;;;;;;;;16.60;33.80;;;;;;8335161;28;20408;-52
2022/02/26 17:59:25;;;;;;;;;;;16.50;33.60;;;;;;8335628;28;19918;-51
2022/02/26 18:03:25;;;;;;;;;;;16.60;33.80;;;;;;8335721;28;19933;-50
2022/02/26 18:07:26;;;;;;;;;;;16.60;33.70;;;;;;8334700;28;19918;-51
2022/02/26 18:11:26;;;;;;;;;;;16.60;33.70;;;;;;8334882;28;20005;-51
2022/02/26 18:15:27;;;;;;;;;;;16.60;33.80;;;;;;8335031;28;19921;-52
2022/02/26 18:19:27;;;;;;;;;;;16.50;33.70;;;;;;8334275;28;19924;-51
2022/02/26 18:23:28;;;;;;;;;;;16.50;33.70;;;;;;8334744;28;19913;-49
2022/02/26 18:27:28;;;;;;;;;;;16.50;33.70;;;;;;8334546;28;20211;-49
2022/02/26 18:31:30;;;;;;;;;;;16.50;33.70;;;;;;8333460;28;20051;-50
2022/02/26 18:35:30;;;;;;;;;;;16.50;33.70;;;;;;8334049;28;19917;-51
2022/02/26 18:39:31;;;;;;;;;;;16.50;33.60;;;;;;8334166;28;19925;-48
2022/02/26 18:43:31;;;;;;;;;;;16.50;33.60;;;;;;8333872;28;19913;-49
2022/02/26 18:47:32;;;;;;;;;;;16.50;33.60;;;;;;8333802;28;20377;-54
2022/02/26 18:51:33;;;;;;;;;;;16.50;33.60;;;;;;8333689;28;19948;-49
2022/02/26 18:55:33;;;;;;;;;;;16.50;33.60;;;;;;8333300;28;19921;-49
2022/02/26 18:59:34;;;;;;;;;;;16.50;33.60;;;;;;8333702;28;19917;-51
2022/02/26 19:03:34;;;;;;;;;;;16.50;33.60;;;;;;8333707;28;19999;-52
2022/02/26 19:07:35;;;;;;;;;;;16.50;33.60;;;;;;8332918;28;19940;-49
2022/02/26 19:11:35;;;;;;;;;;;16.50;33.60;;;;;;8333043;28;19951;-50
2022/02/26 19:15:36;;;;;;;;;;;16.50;33.50;;;;;;8333066;28;19928;-51
2022/02/26 19:19:38;;;;;;;;;;;16.50;33.60;;;;;;8332595;28;19936;-53
2022/02/26 19:23:40;;;;;;;;;;;16.40;33.50;;;;;;8333518;28;19913;-53
2022/02/26 19:27:41;;;;;;;;;;;16.40;33.50;;;;;;8333065;28;19917;-52
2022/02/26 19:31:41;;;;;;;;;;;16.40;33.50;;;;;;8332108;28;19925;-50
2022/02/26 19:35:43;;;;;;;;;;;16.40;33.50;;;;;;8332552;28;19924;-50
2022/02/26 19:39:43;;;;;;;;;;;16.40;33.60;;;;;;8332447;28;20382;-48
2022/02/26 19:43:44;;;;;;;;;;;16.40;33.50;;;;;;8331994;28;20010;-49
2022/02/26 19:47:44;;;;;;;;;;;16.40;33.50;;;;;;8332129;28;20394;-52
2022/02/26 19:51:45;;;;;;;;;;;16.40;33.50;;;;;;8331767;28;19925;-53
2022/02/26 19:55:45;;;;;;;;;;;16.40;33.50;;;;;;8331437;28;20350;-48
2022/02/26 19:59:46;;;;;;;;;;;16.40;33.50;;;;;;8331740;28;19920;-52
2022/02/26 20:03:47;;;;;;;;;;;16.40;33.40;;;;;;8331898;28;19914;-50
2022/02/26 20:07:47;;;;;;;;;;;16.40;33.50;;;;;;8307042;28;20505;-52
2022/02/26 20:11:47;;;;;;;;;;;16.40;33.50;;;;;;8316210;28;19956;-49
2022/02/26 20:15:48;;;;;;;;;;;16.40;33.50;;;;;;8331516;28;19995;-48
2022/02/26 20:19:48;;;;;;;;;;;16.40;33.40;;;;;;8330849;28;19913;-49
2022/02/26 20:23:52;;;;;;;;;;;16.40;33.50;;;;;;8331298;28;19963;-51
2022/02/26 20:27:53;;;;;;;;;;;16.40;33.40;;;;;;8330954;28;19922;-51
2022/02/26 20:31:53;;;;;;;;;;;16.40;33.50;;;;;;8333125;28;20343;-47
2022/02/26 20:35:54;;;;;;;;;;;16.40;33.50;;;;;;8355171;28;19917;-49
2022/02/26 20:39:54;;;;;;;;;;;16.40;33.40;;;;;;8330528;28;20334;-49
2022/02/26 20:43:55;;;;;;;;;;;16.40;33.40;;;;;;8330216;28;19917;-48
2022/02/26 20:47:55;;;;;;;;;;;16.40;33.40;;;;;;8330691;28;20401;-48
2022/02/26 20:51:56;;;;;;;;;;;16.40;33.40;;;;;;8330034;28;19972;-49
2022/02/26 20:55:56;;;;;;;;;;;16.30;33.40;;;;;;8329229;28;19925;-48
2022/02/26 20:59:57;;;;;;;;;;;16.40;33.40;;;;;;8330321;28;19913;-51
2022/02/26 21:03:57;;;;;;;;;;;16.30;33.30;;;;;;8330031;28;20420;-52
2022/02/26 21:07:57;;;;;;;;;;;16.30;33.40;;;;;;8329669;28;20020;-49
2022/02/26 21:11:58;;;;;;;;;;;16.30;33.30;;;;;;8330255;28;19970;-49
2022/02/26 21:15:59;;;;;;;;;;;16.30;33.40;;;;;;8329928;28;20008;-50
2022/02/26 21:20:00;;;;;;;;;;;16.30;33.40;;;;;;8329631;28;20326;-49
2022/02/26 21:24:00;;;;;;;;;;;16.30;33.30;;;;;;8329775;28;19940;-48
2022/02/26 21:28:01;;;;;;;;;;;16.30;33.30;;;;;;8329785;28;19964;-50
2022/02/26 21:32:02;;;;;;;;;;;16.30;33.30;;;;;;8329188;28;19925;-49
2022/02/26 21:36:03;;;;;;;;;;;16.30;33.30;;;;;;8329691;28;20279;-48
2022/02/26 21:40:04;;;;;;;;;;;16.30;33.20;;;;;;8329993;28;19917;-51
2022/02/26 21:44:04;;;;;;;;;;;16.30;33.30;;;;;;8329012;28;20359;-51
2022/02/26 21:48:05;;;;;;;;;;;16.30;33.30;;;;;;8329778;28;19975;-51
2022/02/26 21:52:05;;;;;;;;;;;16.20;33.30;;;;;;8329282;28;19936;-50
2022/02/26 21:56:06;;;;;;;;;;;16.20;33.20;;;;;;8328815;28;19921;-52
2022/02/26 22:00:08;;;;;;;;;;;16.20;33.20;;;;;;8329639;28;19913;-50
2022/02/26 22:04:08;;;;;;;;;;;16.20;33.20;;;;;;8329148;28;19923;-51
2022/02/26 22:08:09;;;;;;;;;;;16.20;33.20;;;;;;8330953;28;19921;-50
2022/02/26 22:12:10;;;;;;;;;;;16.20;33.20;;;;;;8334999;28;19933;-51
2022/02/26 22:16:10;;;;;;;;;;;16.20;33.30;;;;;;8335010;28;20031;-49
2022/02/26 22:20:11;;;;;;;;;;;16.20;33.30;;;;;;8334459;28;20020;-51
2022/02/26 22:24:12;;;;;;;;;;;16.20;33.20;;;;;;8334719;28;20340;-53
2022/02/26 22:28:13;;;;;;;;;;;16.20;33.30;;;;;;8340876;28;19917;-48
2022/02/26 22:32:13;;;;;;;;;;;16.20;33.20;;;;;;8334077;28;19926;-49
2022/02/26 22:36:17;;;;;;;;;;;16.20;33.20;;;;;;8334340;28;19923;-48
2022/02/26 22:40:17;;;;;;;;;;;16.20;33.20;;;;;;8334674;28;19917;-53
2022/02/26 22:44:18;;;;;;;;;;;16.20;33.10;;;;;;8333817;28;20325;-52
2022/02/26 22:48:18;;;;;;;;;;;16.20;33.20;;;;;;8334075;28;19921;-50
2022/02/26 22:52:19;;;;;;;;;;;16.20;33.20;;;;;;8333887;28;19928;-49
2022/02/26 22:56:19;;;;;;;;;;;16.10;33.10;;;;;;8333345;28;19921;-48
2022/02/26 23:00:25;;;;;;;;;;;16.10;33.20;;;;;;8334112;28;19924;-51
2022/02/26 23:04:26;;;;;;;;;;;16.20;33.20;;;;;;8331275;28;19924;-53
2022/02/26 23:08:26;;;;;;;;;;;16.10;33.20;;;;;;8333561;28;19917;-50
2022/02/26 23:12:27;;;;;;;;;;;16.10;33.30;;;;;;8333584;28;20325;-52
2022/02/26 23:16:27;;;;;;;;;;;16.10;33.20;;;;;;8332839;28;19924;-48
2022/02/26 23:20:28;;;;;;;;;;;16.10;33.20;;;;;;8333136;28;19913;-49
2022/02/26 23:24:29;;;;;;;;;;;16.10;33.20;;;;;;8332886;28;19944;-51